Aviation Digital Data Service (ADDS)

Output produced by TAFs form (1901 UTC 23 April 2018)
found at http://www.aviationweather.gov/adds/tafs/
 
KAVL 231854Z 12010G19KT 090V160 10SM FEW010 OVC018 12/09 A3013 RMK AO2 RAE50 SLP192 P0003 T01170094
KAVL 231733Z 2318/2418 12009G15KT 4SM -SHRA BR OVC009 
     FM232100 12012KT 2SM BR OVC009 WS020/11040KT 
     TEMPO 2321/2401 1SM -SHRA BR OVC003 
     FM240300 07009KT 2SM -SHRA BR OVC008 WS020/11040KT 
     FM240600 10011KT 2SM -SHRA BR OVC008 
     FM241200 13005KT 3SM -SHRA BR OVC006 
     FM241700 12003KT 5SM -SHRA OVC013